My Meet Scores
Olivia Renik, Aerial Gymnastics Club - MyMeetScores.com
Top100 | Top Teams | Upcoming Meets | Completed Meets | Latest | Add Scores | Help| Support | Bookmark and Share

Olivia Renik, Aerial Gymnastics Club
Personal Bests
LevelVault BarsBeamFloorAA
49.6008.650 9.0759.22536.550
59.3259.075 9.5009.40036.550
69.6259.050 9.8509.65037.650
79.6258.900 9.6009.57537.500
89.6259.425 9.6759.72537.750
99.4259.600 9.3259.52536.925
Scores on America's Top 100as of 05.24.2018
Year Level Vault Bars Beam Floor AA
2011 69.850
2013 89.725, 9.725
2014 99.600
Meet Scores
Date Meet Team Session Level Division Vault Bars Beam Floor AA
2015-04-17 2015 Region 5 Level 9, 10 Championships Aerial Gymnastics Club 03 9 Senior 1 9.300 5T 8.275 18 8.850 8 9.350 2T 35.775 10
2015-03-27 2015 Illinois Level 8,9,10 State Championships Aerial Gymnastics Club 4 9 SrA 9.350 8 9.150 3 8.150 23 8.800 15 35.450 8
2015-03-13 2015 Lucky Invite Aerial Gymnastics Club A4 9 Sr.A 9.425 2T 9.400 2 8.725 6 9.175 3 36.725 2
2015-02-20 Midwest Open 2015 Aerial Gymnastics Club 4B 9 Sr.A 8.800 3 9.250 2 9.225 1 8.825 4 36.100 1
2015-02-05 Buckeye Classic Aerial Gymnastics Club SB2 9 Sr A 9.175 2 9.375 1 8.300 6T 8.950 2T 35.800 1
2015-01-23 King Arthur Invitational Aerial Gymnastics Club 4 9 Junior 9.300 2 0.000 11 8.575 7 9.050 2 26.925 10
2014-04-11 2014 Region 5 Level 9, 10 Regionals Aerial Gymnastics Club 9 Level 9: Junior 6 9.075 14T 8.425 19 9.325 4T 9.425 6 36.250 14
2014-03-21 2014 Illinois Level 8, 9, 10 State Championships Aerial Gymnastics Club 9 Jr.C 9.200 10 9.600 1 8.600 17 9.525 2 36.925 5
2014-02-07 IGI Chicago Style Gymnastics Meet Aerial Gymnastics Club 433 8 14 & Over 9.625 1 8.250 12 9.075 2 9.400 2T 36.350 2
2014-01-31 Circle Of Stars Aerial Gymnastics Club 3 8 14 9.600 1 9.425 1 9.300 1 9.175 1 37.500 1
2013-04-19 2013 Region 5 Level 8 Regional Championships Aerial Gymnastics Club 05A, 05B 8 Junior E 9.075 21 9.425 8T 8.725 38T 9.400 2T 36.625 12T
2013-03-22 2013 Illinois Level 8, 9, 10 State Championships Aerial Gymnastics Club All 8 Jr.D 9.400 2 9.200 9 8.875 14 9.725 1 37.200 3
2013-03-08 Arena Classic 2013 Aerial Gymnastics Club 4 8 13+ 9.375 4 9.375 4 8.925 7 9.550 2 37.225 2
2013-02-22 Midwest Open 2013 Aerial Gymnastics Club 3B 8 Senior A 9.600 1 9.250 4 9.325 2 9.575 1 37.750 1
2013-02-08 IGI Chicago Style Gymnastics Meet Aerial Gymnastics Club 531 8 13 Yr Olds 9.025 3 9.325 2 9.675 1 9.725 1 37.750 1
2013-01-11 Circle Of Stars Aerial Gymnastics Club 8 12 to 13 9.075 1 9.400 3 9.100 3 9.450 1 37.025 2
2012-12-13 2012 Hawaiin Pineapple Classic Aerial Gymnastics Club B3 8 age 13 8.475 7 8.325 10 9.200 2 9.050 7 35.050 8
2012-03-16 2012 Illinois Level 6, 7 State Championships Flipstar Gymnastics Academy 7 7 YouthC 9.625 4 8.700 19T 9.450 4 9.575 1T 37.350 6
2012-02-25 Midwest Open 2012 Flipstar Gymnastics Academy 7B 7 Lvl 7: 12 9.375 4 8.600 11 9.000 9 9.275 6 36.250 5
2012-02-18 BIG Dream Classic 2012 Flipstar Gymnastics Academy 3B 7 Junior B 9.600 2T 8.450 12 9.350 4 9.200 11 36.600 8
2012-02-10 IGI Chicago Style Gymnastics Flipstar Gymnastics Academy 133 7 11 & Under 9.475 3 8.350 21T 9.325 8T 9.325 13T 36.475 12
2012-01-28 2012 King Arthur Invitational Flipstar Gymnastics Academy 3 7 Sr.A 9.150 2 8.700 7 9.550 3 9.300 5 36.700 4
2012-01-06 Crossroads Classic Flipstar Gymnastics Academy All Sessions Combined 7 CH 9.250 3T 8.800 5 9.600 1 9.450 4 37.100 2
2011-12-02 2011 Ultimate Wish Classic Flipstar Gymnastics Academy 3 7 Sr.A 9.625 2 8.900 8 9.500 1 9.475 5 37.500 3
2011-03-25 2011 Illinois Level 6-9-10 State Meet Flipstar Gymnastics Academy 2 6 Jr.B 9.625 1 8.525 12 9.850 1 9.650 1 37.650 1
2011-03-04 Flip'r Meet Flipstar Gymnastics Academy 5 6 11 9.250 4 8.775 5 9.475 1 9.275 1 36.775 1
2011-02-26 Midwest Open Flipstar Gymnastics Academy 7A 6 11 9.475 1 9.050 2 9.525 1 9.450 1 37.500 1
2011-02-19 Big Dream Classic Flipstar Gymnastics Academy 1A 6 11 yrs 9.375 2 8.300 10 9.450 2T 9.125 3 36.250 3
2011-02-11 IGI Chicago Style Gymnastics Meet Flipstar Gymnastics Academy 512 6 10 & Under 9.250 3 7.900 18 9.250 4 9.275 1 35.675 1
2011-01-08 Crossroads Classic Flipstar Gymnastics Academy 3A 6 Ch 9.225 1 8.200 5 9.525 2 9.425 1 36.375 1
2010-12-03 Make a Wish Flipstar Gymnastics Academy 11 6 11 9.275 2 8.800 4T 9.425 2 9.350 1 36.850 1
2009-12-04 Ultimate Wish Classic Flipstar Gymnastics Academy 5 6 Ch7-11 9.075 18 7.900 38 8.325 36 8.425 35 33.725 39
2009-11-13 2009 North Judges Cup Flipstar Gymnastics Academy 7A 6 7-10 9.125 3 0.000 27 9.225 2 8.600 8 26.950 27
2009-04-03 2009 Illinois Level 5 State Championships Gym Kinetics Sports Complex 1 5 ChildD 9.025 4 8.800 15 9.350 4 9.375 7 36.550 8
2009-02-13 For Love or Money Gym Kinetics Sports Complex LoveGym 5 9 9.325 4 8.025 58 9.500 8T 9.350 13T 36.200 22
2009-01-17 St. Jude Benefit Meet Gym Kinetics Sports Complex 8 5 Lvl5:7-8 8.500 5 9.075 3 8.800 5 9.400 35.775 3
2008-12-13 St Nick Invite Gym Kinetics Sports Complex 6 5 All 8.500 27 8.700 19 8.675 28 9.100 8 34.975 15
2008-11-22 Thanksgiving Classic Gym Kinetics Sports Complex 5 5 Ch 9 8.000 18T 8.350 7 7.500 19 8.800 2 32.650 9
2008-11-15 Thanks To You Co~Ed Classic Gym Kinetics Sports Complex 3 5 7-9yrs 8.700 3 8.650 5 8.375 11 8.800 1 34.525 1
2008-02-09 For Love or Money 2008 Gym Kinetics Sports Complex LoveGym 4 8 9.600 4T 8.650 43T 9.075 16T 9.225 34T 36.550 18
2008-02-09 For Love or Money 2008 Gym Kinetics Sports Complex MoneyGym 4 8 0.000 1T 0.000 1T 0.000 1T 0.000 1T 0.000 1T

www.lazysuits.com